createdAt,value
2022-10-19T00:01:28.776Z,11.01
2022-10-19T00:03:55.897Z,10.98
2022-10-19T00:06:26.856Z,11.00
2022-10-19T00:08:55.871Z,10.96
2022-10-19T00:11:23.767Z,10.98
2022-10-19T00:13:50.563Z,10.95
2022-10-19T00:16:17.375Z,10.93
2022-10-19T00:18:44.902Z,10.97
2022-10-19T00:21:14.819Z,10.94
2022-10-19T00:23:41.593Z,10.78
2022-10-19T00:26:08.489Z,10.75
2022-10-19T00:28:35.004Z,10.77
2022-10-19T00:31:10.901Z,10.82
2022-10-19T00:33:37.343Z,10.86
2022-10-19T00:36:04.794Z,10.90
2022-10-19T00:38:31.346Z,10.96
2022-10-19T00:40:57.749Z,11.04
2022-10-19T00:43:26.720Z,11.08
2022-10-19T00:45:53.207Z,11.11
2022-10-19T00:48:30.498Z,11.12
2022-10-19T00:50:59.575Z,11.21
2022-10-19T00:53:28.671Z,11.19
2022-10-19T00:55:56.515Z,11.13
2022-10-19T00:58:22.938Z,11.10
2022-10-19T01:00:49.416Z,11.11
2022-10-19T01:03:15.840Z,11.13
2022-10-19T01:05:42.670Z,11.11
2022-10-19T01:08:10.003Z,11.12
2022-10-19T01:11:08.474Z,11.14
2022-10-19T01:14:03.119Z,11.10
2022-10-19T01:16:55.712Z,11.07
2022-10-19T01:19:48.078Z,11.07
2022-10-19T01:22:52.217Z,11.04
2022-10-19T01:25:24.561Z,11.07
2022-10-19T01:28:11.088Z,11.07
2022-10-19T01:30:56.074Z,11.02
2022-10-19T01:36:44.046Z,10.99
2022-10-19T01:39:13.339Z,11.02
2022-10-19T01:41:55.770Z,11.07
2022-10-19T01:44:25.866Z,11.09
2022-10-19T01:46:57.171Z,11.12
2022-10-19T01:49:32.675Z,11.13
2022-10-19T01:52:05.524Z,11.13
2022-10-19T01:54:38.489Z,11.14
2022-10-19T01:57:07.486Z,11.15
2022-10-19T01:59:36.242Z,11.13
2022-10-19T02:02:04.727Z,11.14
2022-10-19T02:04:33.390Z,11.15
2022-10-19T02:07:02.464Z,11.16
2022-10-19T02:09:28.890Z,11.14
2022-10-19T02:11:59.032Z,11.11
2022-10-19T02:14:31.110Z,11.08
2022-10-19T02:17:02.409Z,11.07
2022-10-19T02:19:28.770Z,11.09
2022-10-19T02:21:56.475Z,11.07
2022-10-19T02:24:22.850Z,11.07
2022-10-19T02:26:50.135Z,11.09
2022-10-19T02:29:16.990Z,11.07
2022-10-19T02:31:43.724Z,11.08
2022-10-19T02:34:10.648Z,11.09
2022-10-19T02:36:37.042Z,11.08
2022-10-19T02:39:03.931Z,11.08
2022-10-19T02:41:46.924Z,11.05
2022-10-19T02:44:23.923Z,11.04
2022-10-19T02:47:16.157Z,10.98
2022-10-19T02:49:44.536Z,10.95
2022-10-19T02:52:13.359Z,10.91
2022-10-19T02:54:42.298Z,10.89
2022-10-19T02:57:17.711Z,10.85
2022-10-19T02:59:44.313Z,10.80
2022-10-19T03:02:10.674Z,10.79
2022-10-19T03:04:37.046Z,10.84
2022-10-19T03:07:03.633Z,10.78
2022-10-19T03:09:30.074Z,10.76
2022-10-19T03:11:56.437Z,10.74
2022-10-19T03:14:22.787Z,10.73
2022-10-19T03:16:49.191Z,10.71
2022-10-19T03:19:15.556Z,10.69
2022-10-19T03:21:41.891Z,10.70
2022-10-19T03:24:08.374Z,10.71
2022-10-19T03:26:34.739Z,10.71
2022-10-19T03:29:01.099Z,10.76
2022-10-19T03:31:27.515Z,10.74
2022-10-19T03:33:53.853Z,10.75
2022-10-19T03:36:26.485Z,10.73
2022-10-19T03:38:55.148Z,10.71
2022-10-19T03:41:22.869Z,10.70
2022-10-19T03:43:49.557Z,10.69
2022-10-19T03:46:16.308Z,10.70
2022-10-19T03:48:43.275Z,10.66
2022-10-19T03:51:12.962Z,10.65
2022-10-19T03:53:40.534Z,10.61
2022-10-19T03:56:10.856Z,10.61
2022-10-19T03:58:39.289Z,10.62
2022-10-19T04:01:14.525Z,10.65
2022-10-19T04:03:41.153Z,10.61
2022-10-19T04:06:11.270Z,10.62
2022-10-19T04:08:37.591Z,10.61
2022-10-19T04:11:06.477Z,10.55
2022-10-19T04:13:34.620Z,10.53
2022-10-19T04:16:01.159Z,10.56
2022-10-19T04:18:27.607Z,10.57
2022-10-19T04:21:03.300Z,10.55
2022-10-19T04:23:32.814Z,10.54
2022-10-19T04:26:05.884Z,10.53
2022-10-19T04:28:33.467Z,10.47
2022-10-19T04:31:04.195Z,10.48
2022-10-19T04:33:30.733Z,10.47
2022-10-19T04:36:04.446Z,10.44
2022-10-19T04:38:31.622Z,10.44
2022-10-19T04:41:03.167Z,10.43
2022-10-19T04:43:29.700Z,10.44
2022-10-19T04:45:56.143Z,10.42
2022-10-19T04:48:22.587Z,10.40
2022-10-19T04:50:48.955Z,10.42
2022-10-19T04:53:15.288Z,10.41
2022-10-19T04:55:42.307Z,10.40
2022-10-19T04:58:09.147Z,10.39
2022-10-19T05:00:37.957Z,10.36
2022-10-19T05:03:04.751Z,10.35
2022-10-19T05:05:32.315Z,10.32
2022-10-19T05:07:58.789Z,10.33
2022-10-19T05:10:25.241Z,10.35
2022-10-19T05:12:51.583Z,10.34
2022-10-19T05:15:18.108Z,10.36
2022-10-19T05:17:44.610Z,10.32
2022-10-19T05:20:11.452Z,10.33
2022-10-19T05:22:38.764Z,10.31
2022-10-19T05:25:06.645Z,10.27
2022-10-19T05:27:33.896Z,10.28
2022-10-19T05:30:00.516Z,10.31
2022-10-19T05:32:28.303Z,10.33
2022-10-19T05:34:54.720Z,10.31
2022-10-19T05:37:21.647Z,10.31
2022-10-19T05:39:48.131Z,10.25
2022-10-19T05:42:14.502Z,10.23
2022-10-19T05:44:41.047Z,10.29
2022-10-19T05:47:07.475Z,10.37
2022-10-19T05:49:33.988Z,10.39
2022-10-19T05:52:00.696Z,10.36
2022-10-19T05:54:28.524Z,10.41
2022-10-19T05:56:55.175Z,10.41
2022-10-19T05:59:22.332Z,10.44
2022-10-19T06:01:48.952Z,10.46
2022-10-19T06:06:47.111Z,10.50
2022-10-19T06:09:13.495Z,10.56
2022-10-19T06:11:41.368Z,10.56
2022-10-19T06:14:11.808Z,10.57
2022-10-19T06:16:38.584Z,10.57
2022-10-19T06:19:05.390Z,10.58
2022-10-19T06:21:32.872Z,10.57
2022-10-19T06:24:02.832Z,10.59
2022-10-19T06:26:31.675Z,10.60
2022-10-19T06:29:00.441Z,10.67
2022-10-19T06:31:28.230Z,10.73
2022-10-19T06:33:55.684Z,10.75
2022-10-19T06:36:24.789Z,10.77
2022-10-19T06:38:51.181Z,10.76
2022-10-19T06:41:17.582Z,10.73
2022-10-19T06:43:44.360Z,10.77
2022-10-19T06:46:15.502Z,10.79
2022-10-19T06:48:41.882Z,10.80
2022-10-19T06:51:08.544Z,10.90
2022-10-19T06:53:36.489Z,10.88
2022-10-19T06:56:05.787Z,10.97
2022-10-19T06:58:36.399Z,10.98
2022-10-19T07:01:02.926Z,11.07
2022-10-19T07:03:30.027Z,11.11
2022-10-19T07:05:59.239Z,11.19
2022-10-19T07:08:27.436Z,11.22
2022-10-19T07:10:56.603Z,11.31
2022-10-19T07:13:23.328Z,11.34
2022-10-19T07:15:50.201Z,11.43
2022-10-19T07:18:16.635Z,11.49
2022-10-19T07:20:42.969Z,11.51
2022-10-19T07:23:09.386Z,11.60
2022-10-19T07:25:36.371Z,11.59
2022-10-19T07:28:03.027Z,11.67
2022-10-19T07:30:29.411Z,11.72
2022-10-19T07:32:55.722Z,11.73
2022-10-19T07:35:22.134Z,11.77
2022-10-19T07:37:48.468Z,11.82
2022-10-19T07:40:14.915Z,11.79
2022-10-19T07:42:41.251Z,11.78
2022-10-19T07:45:07.847Z,11.80
2022-10-19T07:47:34.550Z,11.78
2022-10-19T07:50:01.118Z,11.69
2022-10-19T07:52:27.526Z,11.74
2022-10-19T07:54:55.289Z,11.72
2022-10-19T07:57:22.467Z,11.81
2022-10-19T07:59:48.812Z,11.95
2022-10-19T08:02:16.953Z,11.95
2022-10-19T08:04:59.618Z,12.05
2022-10-19T08:07:28.307Z,12.10
2022-10-19T08:09:54.799Z,12.18
2022-10-19T08:12:21.467Z,12.17
2022-10-19T08:14:48.251Z,12.24
2022-10-19T08:17:17.343Z,12.25
2022-10-19T08:19:44.994Z,12.17
2022-10-19T08:22:11.753Z,12.15
2022-10-19T08:24:38.534Z,12.12
2022-10-19T08:27:05.118Z,12.23
2022-10-19T08:29:32.000Z,12.24
2022-10-19T08:31:58.609Z,12.25
2022-10-19T08:34:25.382Z,12.36
2022-10-19T08:36:51.775Z,12.50
2022-10-19T08:39:18.243Z,12.60
2022-10-19T08:42:19.792Z,12.70
2022-10-19T08:45:18.740Z,12.74
2022-10-19T08:47:48.079Z,12.72
2022-10-19T08:50:25.076Z,12.68
2022-10-19T08:53:22.411Z,12.71
2022-10-19T08:56:26.927Z,12.68
2022-10-19T08:59:18.310Z,12.99
2022-10-19T09:01:58.153Z,13.26
2022-10-19T09:04:30.704Z,13.54
2022-10-19T09:07:22.107Z,13.45
2022-10-19T09:09:55.999Z,13.43
2022-10-19T09:12:33.504Z,13.38
2022-10-19T09:15:13.389Z,13.43
2022-10-19T09:17:39.804Z,13.53
2022-10-19T09:20:29.340Z,13.39
2022-10-19T09:23:18.941Z,13.28
2022-10-19T09:25:48.291Z,13.37
2022-10-19T09:28:23.265Z,13.37
2022-10-19T09:30:56.525Z,13.13
2022-10-19T09:33:38.874Z,13.32
2022-10-19T09:36:06.804Z,13.28
2022-10-19T09:38:33.361Z,13.09
2022-10-19T09:41:14.739Z,13.05
2022-10-19T09:43:50.679Z,13.34
2022-10-19T09:46:41.714Z,13.58
2022-10-19T09:49:08.108Z,13.75
2022-10-19T09:51:52.257Z,13.86
2022-10-19T09:54:37.426Z,13.97
2022-10-19T09:57:05.249Z,14.07
2022-10-19T09:59:36.607Z,14.00
2022-10-19T10:02:05.979Z,14.00
2022-10-19T10:04:32.490Z,14.02
2022-10-19T10:06:59.196Z,13.91
2022-10-19T10:09:28.458Z,13.89
2022-10-19T10:11:58.287Z,13.78
2022-10-19T10:14:35.336Z,13.76
2022-10-19T10:17:25.616Z,13.64
2022-10-19T10:20:16.741Z,13.60
2022-10-19T10:22:52.978Z,13.48
2022-10-19T10:25:19.813Z,13.50
2022-10-19T10:27:59.082Z,13.43
2022-10-19T10:30:28.875Z,13.44
2022-10-19T10:32:58.068Z,13.45
2022-10-19T10:35:34.658Z,13.56
2022-10-19T10:38:25.153Z,13.65
2022-10-19T10:40:54.586Z,13.74
2022-10-19T10:43:29.291Z,13.70
2022-10-19T10:46:14.444Z,13.55
2022-10-19T10:48:53.405Z,13.42
2022-10-19T10:51:27.164Z,13.39
2022-10-19T10:54:08.852Z,13.40
2022-10-19T10:56:35.408Z,13.33
2022-10-19T10:59:15.351Z,13.41
2022-10-19T11:01:57.285Z,13.24
2022-10-19T11:04:31.121Z,13.40
2022-10-19T11:07:04.957Z,13.61
2022-10-19T11:09:38.120Z,13.81
2022-10-19T11:12:16.163Z,13.88
2022-10-19T11:15:00.675Z,13.54
2022-10-19T11:17:31.804Z,14.70
2022-10-19T11:19:58.423Z,16.49
2022-10-19T11:22:58.914Z,18.32
2022-10-19T11:25:54.505Z,19.81
2022-10-19T11:28:53.364Z,18.90
2022-10-19T11:31:29.668Z,17.98
2022-10-19T11:33:56.139Z,18.06
2022-10-19T11:36:47.312Z,20.91
2022-10-19T11:39:56.833Z,19.77
2022-10-19T11:42:44.662Z,19.88
2022-10-19T11:45:26.331Z,23.84
2022-10-19T11:48:14.658Z,25.16
2022-10-19T11:51:16.988Z,27.26
2022-10-19T11:53:48.688Z,27.82
2022-10-19T11:57:11.174Z,27.56
2022-10-19T12:00:03.659Z,27.19
2022-10-19T12:02:54.313Z,24.18
2022-10-19T12:05:33.988Z,22.97
2022-10-19T12:08:02.979Z,25.06
2022-10-19T12:10:40.158Z,25.23
2022-10-19T12:13:12.937Z,26.95
2022-10-19T12:15:55.308Z,26.51
2022-10-19T12:18:39.798Z,27.15
2022-10-19T12:21:23.511Z,27.92
2022-10-19T12:23:51.426Z,26.14
2022-10-19T12:26:20.969Z,27.51
2022-10-19T12:28:55.617Z,29.90
2022-10-19T12:31:24.742Z,26.62
2022-10-19T12:34:01.318Z,25.79
2022-10-19T12:36:52.410Z,28.98
2022-10-19T12:39:21.715Z,30.37
2022-10-19T12:42:12.388Z,30.00
2022-10-19T12:45:16.821Z,29.24
2022-10-19T12:48:03.083Z,26.60
2022-10-19T12:50:47.941Z,24.60
2022-10-19T12:53:31.674Z,23.20
2022-10-19T12:56:04.189Z,22.24
2022-10-19T12:58:46.701Z,21.69
2022-10-19T13:01:44.252Z,21.16
2022-10-19T13:04:16.690Z,21.68
2022-10-19T13:06:46.043Z,24.66
2022-10-19T13:09:39.476Z,26.99
2022-10-19T13:12:19.362Z,25.70
2022-10-19T13:14:58.818Z,27.06
2022-10-19T13:17:34.682Z,28.70
2022-10-19T13:20:13.349Z,29.64
2022-10-19T13:22:48.820Z,30.10
2022-10-19T13:25:41.522Z,30.85
2022-10-19T13:28:07.918Z,30.75
2022-10-19T13:30:43.932Z,30.63
2022-10-19T13:33:25.553Z,30.82
2022-10-19T13:36:12.231Z,30.71
2022-10-19T13:38:44.578Z,31.21
2022-10-19T13:41:28.328Z,31.15
2022-10-19T13:44:20.894Z,29.75
2022-10-19T13:47:05.799Z,30.71
2022-10-19T13:49:56.651Z,30.12
2022-10-19T13:52:38.351Z,30.12
2022-10-19T13:55:22.944Z,30.68
2022-10-19T13:58:00.470Z,30.61
2022-10-19T14:00:32.323Z,30.35
2022-10-19T14:03:10.780Z,30.25
2022-10-19T14:06:04.687Z,29.61
2022-10-19T14:08:52.712Z,30.01
2022-10-19T14:11:25.053Z,30.02
2022-10-19T14:14:10.220Z,30.08
2022-10-19T14:16:49.231Z,29.99
2022-10-19T14:19:26.899Z,29.98
2022-10-19T14:22:01.695Z,29.63
2022-10-19T14:24:34.446Z,29.47
2022-10-19T14:27:06.863Z,28.87
2022-10-19T14:29:49.136Z,28.07
2022-10-19T14:32:16.579Z,26.84
2022-10-19T14:34:45.261Z,25.60
2022-10-19T14:37:21.906Z,24.70
2022-10-19T14:40:04.843Z,23.38
2022-10-19T14:42:45.560Z,22.60
2022-10-19T14:45:22.028Z,21.78
2022-10-19T14:47:59.111Z,21.54
2022-10-19T14:50:32.467Z,21.57
2022-10-19T14:53:23.262Z,21.91
2022-10-19T14:55:53.132Z,21.06
2022-10-19T14:58:22.371Z,21.30
2022-10-19T15:00:51.235Z,21.76
2022-10-19T15:03:28.624Z,21.54
2022-10-19T15:06:00.343Z,20.96
2022-10-19T15:08:34.563Z,20.74
2022-10-19T15:11:01.076Z,20.15
2022-10-19T15:13:33.515Z,19.54
2022-10-19T15:16:00.084Z,19.19
2022-10-19T15:18:48.913Z,18.65
2022-10-19T15:21:20.185Z,17.83
2022-10-19T15:23:49.023Z,17.05
2022-10-19T15:26:19.276Z,16.50
2022-10-19T15:28:46.335Z,16.09
2022-10-19T15:31:19.018Z,15.81
2022-10-19T15:33:52.435Z,15.51
2022-10-19T15:36:20.510Z,15.25
2022-10-19T15:39:11.638Z,14.99
2022-10-19T15:41:48.282Z,14.77
2022-10-19T15:44:40.733Z,14.45
2022-10-19T15:47:16.237Z,14.25
2022-10-19T15:49:42.613Z,13.99
2022-10-19T15:52:26.479Z,13.77
2022-10-19T15:54:55.118Z,13.57
2022-10-19T15:57:36.847Z,13.36
2022-10-19T16:00:21.896Z,13.19
2022-10-19T16:02:48.227Z,13.04
2022-10-19T16:05:14.553Z,12.86
2022-10-19T16:07:42.160Z,12.71
2022-10-19T16:10:16.025Z,12.51
2022-10-19T16:12:42.616Z,12.35
2022-10-19T16:15:13.373Z,12.25
2022-10-19T16:17:40.168Z,12.14
2022-10-19T16:20:06.977Z,11.92
2022-10-19T16:22:33.560Z,11.85
2022-10-19T16:24:59.975Z,11.78
2022-10-19T16:27:26.444Z,11.61
2022-10-19T16:29:52.818Z,11.52
2022-10-19T16:32:19.215Z,11.38
2022-10-19T16:34:46.534Z,11.30
2022-10-19T16:37:12.887Z,11.17
2022-10-19T16:39:39.339Z,11.05
2022-10-19T16:42:05.750Z,10.96
2022-10-19T16:44:32.071Z,10.85
2022-10-19T16:46:58.853Z,10.76
2022-10-19T16:49:26.141Z,10.63
2022-10-19T16:51:54.894Z,10.51
2022-10-19T16:54:24.220Z,10.45
2022-10-19T16:56:50.647Z,10.37
2022-10-19T16:59:18.794Z,10.30
2022-10-19T17:01:46.242Z,10.24
2022-10-19T17:04:13.775Z,10.15
2022-10-19T17:06:40.711Z,10.09
2022-10-19T17:09:37.092Z,9.99
2022-10-19T17:11:53.813Z,9.97
2022-10-19T17:14:20.149Z,9.96
2022-10-19T17:16:46.508Z,9.95
2022-10-19T17:19:13.161Z,9.97
2022-10-19T17:21:39.903Z,9.91
2022-10-19T17:24:08.260Z,9.88
2022-10-19T17:26:37.924Z,9.84
2022-10-19T17:29:05.575Z,9.78
2022-10-19T17:31:32.215Z,9.85
2022-10-19T17:34:00.532Z,9.81
2022-10-19T17:36:29.538Z,9.85
2022-10-19T17:38:57.766Z,9.84
2022-10-19T17:41:25.349Z,9.80
2022-10-19T17:43:52.256Z,9.85
2022-10-19T17:46:22.609Z,9.85
2022-10-19T17:48:49.584Z,9.75
2022-10-19T17:51:29.072Z,9.69
2022-10-19T17:53:58.001Z,9.60
2022-10-19T17:56:25.279Z,9.54
2022-10-19T17:58:52.241Z,9.59
2022-10-19T18:01:21.790Z,9.60
2022-10-19T18:03:48.773Z,9.57
2022-10-19T18:06:18.301Z,9.53
2022-10-19T18:08:47.313Z,9.56
2022-10-19T18:11:25.995Z,9.58
2022-10-19T18:13:55.166Z,9.56
2022-10-19T18:16:24.825Z,9.51
2022-10-19T18:18:53.512Z,9.51
2022-10-19T18:21:22.906Z,9.45
2022-10-19T18:23:49.467Z,9.46
2022-10-19T18:26:20.231Z,9.46
2022-10-19T18:28:46.673Z,9.44
2022-10-19T18:31:16.032Z,9.38
2022-10-19T18:33:42.807Z,9.31
2022-10-19T18:36:10.749Z,9.28
2022-10-19T18:38:37.755Z,9.24
2022-10-19T18:43:43.212Z,9.27
2022-10-19T18:46:10.206Z,9.21
2022-10-19T18:48:37.810Z,9.17
2022-10-19T18:51:06.938Z,9.08
2022-10-19T18:53:33.991Z,9.04
2022-10-19T18:56:02.945Z,8.99
2022-10-19T18:58:30.964Z,8.97
2022-10-19T19:01:04.124Z,8.93
2022-10-19T19:03:30.653Z,8.84
2022-10-19T19:06:05.321Z,8.77
2022-10-19T19:08:31.878Z,8.68
2022-10-19T19:11:19.053Z,8.55
2022-10-19T19:13:51.513Z,8.47
2022-10-19T19:16:18.296Z,8.39
2022-10-19T19:18:44.670Z,8.29
2022-10-19T19:21:20.392Z,8.28
2022-10-19T19:23:47.552Z,8.17
2022-10-19T19:26:14.808Z,8.15
2022-10-19T19:28:43.490Z,8.18
2022-10-19T19:31:15.210Z,8.13
2022-10-19T19:33:43.485Z,8.10
2022-10-19T19:36:11.851Z,8.00
2022-10-19T19:38:38.240Z,7.96
2022-10-19T19:41:06.499Z,7.98
2022-10-19T19:43:35.081Z,7.97
2022-10-19T19:46:06.349Z,7.90
2022-10-19T19:48:36.364Z,7.84
2022-10-19T19:51:02.835Z,7.83
2022-10-19T19:53:29.537Z,7.78
2022-10-19T19:55:55.955Z,7.72
2022-10-19T19:58:22.292Z,7.73
2022-10-19T20:00:48.682Z,7.68
2022-10-19T20:03:15.740Z,7.69
2022-10-19T20:05:42.231Z,7.64
2022-10-19T20:08:09.332Z,7.65
2022-10-19T20:10:41.322Z,7.63
2022-10-19T20:13:07.884Z,7.63
2022-10-19T20:15:36.539Z,7.63
2022-10-19T20:18:03.043Z,7.64
2022-10-19T20:20:29.348Z,7.59
2022-10-19T20:22:55.720Z,7.50
2022-10-19T20:25:22.054Z,7.39
2022-10-19T20:27:48.471Z,7.33
2022-10-19T20:30:14.905Z,7.27
2022-10-19T20:32:41.303Z,7.23
2022-10-19T20:35:07.962Z,7.18
2022-10-19T20:37:34.579Z,7.13
2022-10-19T20:40:08.158Z,7.18
2022-10-19T20:42:35.250Z,7.10
2022-10-19T20:45:01.776Z,7.07
2022-10-19T20:47:28.179Z,7.04
2022-10-19T20:49:54.683Z,7.03
2022-10-19T20:52:21.099Z,7.01
2022-10-19T20:54:48.617Z,7.00
2022-10-19T20:57:14.993Z,7.05
2022-10-19T20:59:41.491Z,7.11
2022-10-19T21:02:10.493Z,7.06
2022-10-19T21:04:36.986Z,7.00
2022-10-19T21:07:04.830Z,6.98
2022-10-19T21:09:31.578Z,6.98
2022-10-19T21:11:58.097Z,6.91
2022-10-19T21:14:28.553Z,6.87
2022-10-19T21:16:59.842Z,6.85
2022-10-19T21:19:29.019Z,6.85
2022-10-19T21:22:03.574Z,6.81
2022-10-19T21:24:33.851Z,6.81
2022-10-19T21:27:02.181Z,6.78
2022-10-19T21:29:28.863Z,6.79
2022-10-19T21:31:55.569Z,6.74
2022-10-19T21:34:26.590Z,6.66
2022-10-19T21:36:55.447Z,6.56
2022-10-19T21:39:23.372Z,6.52
2022-10-19T21:41:50.105Z,6.48
2022-10-19T21:44:18.449Z,6.52
2022-10-19T21:46:47.716Z,6.47
2022-10-19T21:49:14.214Z,6.49
2022-10-19T21:51:44.931Z,6.46
2022-10-19T21:54:14.346Z,6.44
2022-10-19T21:56:41.212Z,6.42
2022-10-19T21:59:07.753Z,6.34
2022-10-19T22:01:38.587Z,6.30
2022-10-19T22:04:12.736Z,6.30
2022-10-19T22:06:39.171Z,6.28
2022-10-19T22:09:07.950Z,6.23
2022-10-19T22:11:34.650Z,6.16
2022-10-19T22:14:02.893Z,6.16
2022-10-19T22:16:30.435Z,6.11
2022-10-19T22:18:59.092Z,6.14
2022-10-19T22:21:28.272Z,6.12
2022-10-19T22:24:03.035Z,6.17
2022-10-19T22:26:32.606Z,6.14
2022-10-19T22:29:00.914Z,6.14
2022-10-19T22:31:29.179Z,6.11
2022-10-19T22:33:55.583Z,6.06
2022-10-19T22:36:22.132Z,6.02
2022-10-19T22:38:48.752Z,6.01
2022-10-19T22:41:15.094Z,6.03
2022-10-19T22:43:41.446Z,5.99
2022-10-19T22:46:07.996Z,5.98
2022-10-19T22:48:34.421Z,5.97
2022-10-19T22:51:00.968Z,5.92
2022-10-19T22:53:27.397Z,5.91
2022-10-19T22:55:53.773Z,5.90
2022-10-19T22:58:20.184Z,5.91
2022-10-19T23:00:56.855Z,5.91
2022-10-19T23:03:23.187Z,5.83
2022-10-19T23:05:49.538Z,5.81
2022-10-19T23:08:15.937Z,5.76
2022-10-19T23:10:42.311Z,5.69
2022-10-19T23:13:09.563Z,5.74
2022-10-19T23:15:37.048Z,5.70
2022-10-19T23:18:05.684Z,5.68
2022-10-19T23:20:32.064Z,5.65
2022-10-19T23:22:58.451Z,5.61
2022-10-19T23:25:24.863Z,5.63
2022-10-19T23:27:51.257Z,5.60
2022-10-19T23:30:17.662Z,5.59
2022-10-19T23:32:44.108Z,5.56
2022-10-19T23:35:10.476Z,5.57
2022-10-19T23:37:37.381Z,5.52
2022-10-19T23:40:04.490Z,5.52
2022-10-19T23:42:30.832Z,5.49
2022-10-19T23:44:57.218Z,5.47
2022-10-19T23:47:23.615Z,5.47
2022-10-19T23:49:50.010Z,5.43
2022-10-19T23:52:16.386Z,5.38
2022-10-19T23:54:42.812Z,5.36
2022-10-19T23:57:09.318Z,5.32
2022-10-19T23:59:35.687Z,5.33
